Time;durP1;ratioP1;P1;durP2;ratioP2;P2;SDS_P1;SDS_P2;PMS_P1;PMS_P2;Temp;Humidity;BMP_temperature;BMP_pressure;BME280_temperature;BME280_humidity;BME280_pressure;Samples;Min_cycle;Max_cycle;Signal;HPM_P1;HPM_P2
2023/01/09 00:01:19;;;;;;;413.48;128.45;;;;;;;-142.25;100.00;58004.16;5038435;28;20033;-72
2023/01/09 00:03:45;;;;;;;406.63;128.57;;;;;;;-142.25;100.00;58004.16;5040292;28;20045;-71
2023/01/09 00:06:11;;;;;;;401.37;130.57;;;;;;;-142.25;100.00;58004.16;5040468;28;20496;-71
2023/01/09 00:08:36;;;;;;;404.10;129.67;;;;;;;-142.25;100.00;58004.16;5038722;28;20488;-72
2023/01/09 00:11:02;;;;;;;406.93;128.63;;;;;;;-142.25;100.00;58004.16;5037276;28;20115;-72
2023/01/09 00:13:28;;;;;;;402.10;130.90;;;;;;;-142.25;100.00;58004.16;5038548;28;20128;-72
2023/01/09 00:15:53;;;;;;;404.00;132.03;;;;;;;-142.25;100.00;58004.16;5037861;28;20536;-71
2023/01/09 00:18:19;;;;;;;406.97;129.23;;;;;;;-142.25;100.00;58004.16;5037548;28;20061;-72
2023/01/09 00:20:45;;;;;;;404.93;131.93;;;;;;;-142.25;100.00;58004.16;5038115;28;20060;-72
2023/01/09 00:23:10;;;;;;;399.27;125.53;;;;;;;-142.25;100.00;58004.16;5040101;28;20327;-72
2023/01/09 00:25:36;;;;;;;394.17;128.17;;;;;;;-142.25;100.00;58004.16;5034417;28;20569;-74
2023/01/09 00:28:02;;;;;;;403.73;128.80;;;;;;;-142.25;100.00;58004.16;5035404;28;20037;-72
2023/01/09 00:30:28;;;;;;;401.17;124.90;;;;;;;-142.25;100.00;58004.16;5036113;28;20117;-72
2023/01/09 00:32:55;;;;;;;402.60;127.55;;;;;;;-142.25;100.00;58004.16;5037583;28;20048;-72
2023/01/09 00:35:23;;;;;;;402.10;129.43;;;;;;;-142.25;100.00;58004.16;5037495;28;20048;-70
2023/01/09 00:37:49;;;;;;;401.40;127.97;;;;;;;-142.25;100.00;58004.16;5034764;28;20064;-73
2023/01/09 00:40:16;;;;;;;403.70;126.50;;;;;;;-142.25;100.00;58004.16;5038536;28;20044;-72
2023/01/09 00:42:48;;;;;;;396.50;124.30;;;;;;;-142.25;100.00;58004.16;5039880;28;20144;-73
2023/01/09 00:45:18;;;;;;;401.15;139.20;;;;;;;-142.25;100.00;58004.16;5037555;28;20111;-72
2023/01/09 00:47:51;;;;;;;404.05;137.25;;;;;;;-142.25;100.00;58004.16;5036602;28;20091;-73
2023/01/09 00:50:25;;;;;;;401.80;130.63;;;;;;;-142.25;100.00;58004.16;5041277;28;20107;-70
2023/01/09 00:52:54;;;;;;;421.33;132.93;;;;;;;-142.25;100.00;58004.16;5037535;28;20064;-72
2023/01/09 00:55:20;;;;;;;414.48;129.32;;;;;;;-142.25;100.00;58004.16;5038928;28;20045;-72
2023/01/09 00:57:46;;;;;;;404.37;125.73;;;;;;;-142.25;100.00;58004.16;5037582;28;20475;-71
2023/01/09 01:00:12;;;;;;;408.17;124.67;;;;;;;-142.25;100.00;58004.16;5039864;28;20497;-71
2023/01/09 01:02:38;;;;;;;404.67;125.32;;;;;;;-142.25;100.00;58004.16;5037923;28;20045;-72
2023/01/09 01:07:49;;;;;;;393.13;125.10;;;;;;;-142.25;100.00;58004.16;5035897;28;20088;-71
2023/01/09 01:10:19;;;;;;;409.87;127.47;;;;;;;-142.25;100.00;58004.16;5038182;28;20542;-71
2023/01/09 01:12:46;;;;;;;405.63;124.43;;;;;;;-142.25;100.00;58004.16;5038503;28;20496;-70
2023/01/09 01:15:12;;;;;;;408.40;125.25;;;;;;;-142.25;100.00;58004.16;5035960;28;20556;-72
2023/01/09 01:17:39;;;;;;;407.63;124.35;;;;;;;-142.25;100.00;58004.16;5031211;28;20115;-70
2023/01/09 01:20:08;;;;;;;396.92;126.90;;;;;;;-142.25;100.00;58004.16;5036680;28;20060;-71
2023/01/09 01:22:34;;;;;;;392.92;124.70;;;;;;;-142.25;100.00;58004.16;5037548;28;20124;-71
2023/01/09 01:25:00;;;;;;;407.63;127.07;;;;;;;-142.25;100.00;58004.16;5033017;28;20337;-72
2023/01/09 01:27:27;;;;;;;397.85;126.25;;;;;;;-142.25;100.00;58004.16;5035364;28;20502;-69
2023/01/09 01:29:53;;;;;;;401.08;126.05;;;;;;;-142.25;100.00;58004.16;5036356;28;20059;-71
2023/01/09 01:32:19;;;;;;;403.33;122.80;;;;;;;-142.25;100.00;58004.16;5042675;28;20253;-72
2023/01/09 01:34:44;;;;;;;406.97;125.77;;;;;;;-142.25;100.00;58004.16;5039630;28;20407;-71
2023/01/09 01:37:10;;;;;;;397.03;125.43;;;;;;;-142.25;100.00;58004.16;5035949;28;20110;-70
2023/01/09 01:39:36;;;;;;;395.03;124.27;;;;;;;-142.25;100.00;58004.16;5036395;28;20056;-71
2023/01/09 01:42:03;;;;;;;410.58;121.68;;;;;;;-142.25;100.00;58004.16;5037770;28;20048;-71
2023/01/09 01:45:00;;;;;;;395.02;120.60;;;;;;;-142.25;100.00;58004.16;5034940;28;20366;-72
2023/01/09 01:47:41;;;;;;;401.52;126.40;;;;;;;-142.25;100.00;58004.16;5042647;28;20557;-70
2023/01/09 01:50:30;;;;;;;404.13;125.50;;;;;;;-142.25;100.00;58004.16;5036539;28;20488;-70
2023/01/09 01:52:59;;;;;;;398.83;123.97;;;;;;;-142.25;100.00;58004.16;5034691;28;20037;-72
2023/01/09 01:55:25;;;;;;;402.45;123.47;;;;;;;-142.25;100.00;58004.16;5039185;28;20059;-73
2023/01/09 01:57:56;;;;;;;399.92;127.22;;;;;;;-142.25;100.00;58004.16;5037551;28;20457;-72
2023/01/09 02:00:28;;;;;;;401.48;128.80;;;;;;;-142.25;100.00;58004.16;5036702;28;20085;-73
2023/01/09 02:02:53;;;;;;;401.88;131.45;;;;;;;-142.25;100.00;58004.16;5033712;28;20065;-72
2023/01/09 02:05:19;;;;;;;402.23;135.37;;;;;;;-142.25;100.00;58004.16;5035360;28;20602;-70
2023/01/09 02:07:45;;;;;;;394.37;125.70;;;;;;;-142.25;100.00;58004.16;5038912;28;20561;-70
2023/01/09 02:10:10;;;;;;;398.53;122.87;;;;;;;-142.25;100.00;58004.16;5031296;28;20100;-71
2023/01/09 02:12:36;;;;;;;392.60;124.53;;;;;;;-142.25;100.00;58004.16;5041468;28;20037;-72
2023/01/09 02:15:08;;;;;;;404.90;126.43;;;;;;;-142.25;100.00;58004.16;5034095;28;20048;-72
2023/01/09 02:17:50;;;;;;;393.02;125.25;;;;;;;-142.25;100.00;58004.16;5037180;28;20044;-72
2023/01/09 02:20:37;;;;;;;399.10;124.72;;;;;;;-142.25;100.00;58004.16;5036928;28;20176;-71
2023/01/09 02:23:41;;;;;;;399.52;124.35;;;;;;;-142.25;100.00;58004.16;5034842;28;20045;-72
2023/01/09 02:26:18;;;;;;;395.63;128.95;;;;;;;-142.25;100.00;58004.16;4955763;28;20050;-71
2023/01/09 02:29:02;;;;;;;388.33;122.50;;;;;;;-142.25;100.00;58004.16;4956149;28;20042;-71
2023/01/09 02:32:09;;;;;;;393.08;124.03;;;;;;;-142.25;100.00;58004.16;4956165;28;20047;-72
2023/01/09 02:35:01;;;;;;;396.05;124.85;;;;;;;-142.25;100.00;58004.16;4954774;28;20470;-72
2023/01/09 02:37:47;;;;;;;395.52;125.72;;;;;;;-142.25;100.00;58004.16;4953685;28;20607;-70
2023/01/09 02:40:34;;;;;;;394.33;123.75;;;;;;;-142.25;100.00;58004.16;4945812;28;20137;-72
2023/01/09 02:43:02;;;;;;;401.98;127.30;;;;;;;-142.25;100.00;58004.16;4955122;28;20046;-73
2023/01/09 02:45:27;;;;;;;396.02;128.55;;;;;;;-142.25;100.00;58004.16;4955550;28;20465;-71
2023/01/09 02:47:53;;;;;;;400.20;125.77;;;;;;;-142.25;100.00;58004.16;4957201;28;20047;-73
2023/01/09 02:50:24;;;;;;;391.33;125.27;;;;;;;-142.25;100.00;58004.16;4953286;28;20066;-69
2023/01/09 02:52:52;;;;;;;397.80;126.35;;;;;;;-142.25;100.00;58004.16;4952841;28;20686;-70
2023/01/09 02:55:42;;;;;;;393.83;126.55;;;;;;;-142.25;100.00;58004.16;4953856;28;20131;-71
2023/01/09 02:58:18;;;;;;;398.42;131.20;;;;;;;-142.25;100.00;58004.16;4936922;28;20157;-71
2023/01/09 03:01:08;;;;;;;400.55;137.18;;;;;;;-142.25;100.00;58004.16;4950137;28;20470;-71
2023/01/09 03:03:48;;;;;;;396.70;128.02;;;;;;;-142.25;100.00;58004.16;5012349;28;20060;-71
2023/01/09 03:06:33;;;;;;;391.80;123.95;;;;;;;-142.25;100.00;58004.16;5035922;28;20211;-71
2023/01/09 03:09:07;;;;;;;392.75;126.90;;;;;;;-142.25;100.00;58004.16;5036746;28;20056;-71
2023/01/09 03:11:40;;;;;;;392.42;121.30;;;;;;;-142.25;100.00;58004.16;5033554;28;20065;-71
2023/01/09 03:14:12;;;;;;;394.45;126.32;;;;;;;-142.25;100.00;58004.16;5032227;28;20149;-71
2023/01/09 03:16:38;;;;;;;394.15;125.78;;;;;;;-142.25;100.00;58004.16;5032993;28;20057;-71
2023/01/09 03:19:10;;;;;;;391.48;122.70;;;;;;;-142.25;100.00;58004.16;5031381;28;20092;-71
2023/01/09 03:21:37;;;;;;;392.55;128.63;;;;;;;-142.25;100.00;58004.16;5029800;28;20037;-71
2023/01/09 03:24:03;;;;;;;394.65;126.38;;;;;;;-142.25;100.00;58004.16;5028393;28;20068;-71
2023/01/09 03:26:29;;;;;;;395.33;123.43;;;;;;;-142.25;100.00;58004.16;5033794;28;20408;-71
2023/01/09 03:28:56;;;;;;;389.92;120.63;;;;;;;-142.25;100.00;58004.16;5034478;28;20056;-71
2023/01/09 03:31:22;;;;;;;395.88;130.80;;;;;;;-142.25;100.00;58004.16;5033599;28;20049;-71
2023/01/09 03:33:48;;;;;;;394.95;126.68;;;;;;;-142.25;100.00;58004.16;5032799;28;20147;-71
2023/01/09 03:36:16;;;;;;;397.97;128.80;;;;;;;-142.25;100.00;58004.16;5034583;28;20165;-71
2023/01/09 03:38:41;;;;;;;397.88;129.38;;;;;;;-142.25;100.00;58004.16;5032248;28;20702;-72
2023/01/09 03:41:07;;;;;;;394.17;127.77;;;;;;;-142.25;100.00;58004.16;5033745;28;20132;-72
2023/01/09 03:43:34;;;;;;;401.00;136.60;;;;;;;-142.25;100.00;58004.16;5032852;28;20776;-72
2023/01/09 03:46:00;;;;;;;398.92;131.23;;;;;;;-142.25;100.00;58004.16;5032946;28;20322;-73
2023/01/09 03:48:26;;;;;;;397.23;130.27;;;;;;;-142.25;100.00;58004.16;5033946;28;20068;-73
2023/01/09 03:50:53;;;;;;;395.27;129.13;;;;;;;-142.25;100.00;58004.16;5026800;28;20131;-72
2023/01/09 03:53:21;;;;;;;393.92;128.85;;;;;;;-142.25;100.00;58004.16;5037584;28;20132;-71
2023/01/09 03:55:49;;;;;;;405.05;139.60;;;;;;;-142.25;100.00;58004.16;5035580;28;20497;-69
2023/01/09 03:58:15;;;;;;;399.55;135.45;;;;;;;-142.25;100.00;58004.16;5034076;28;20048;-69
2023/01/09 04:00:42;;;;;;;392.67;129.82;;;;;;;-142.25;100.00;58004.16;5034581;28;20132;-64
2023/01/09 04:03:08;;;;;;;394.75;129.88;;;;;;;-142.25;100.00;58004.16;5035087;28;20097;-68
2023/01/09 04:05:34;;;;;;;397.88;135.95;;;;;;;-142.25;100.00;58004.16;5024234;28;20080;-69
2023/01/09 04:08:00;;;;;;;399.85;131.48;;;;;;;-142.25;100.00;58004.16;5034532;28;20522;-68
2023/01/09 04:10:26;;;;;;;396.75;133.77;;;;;;;-142.25;100.00;58004.16;5034356;28;20040;-68
2023/01/09 04:12:52;;;;;;;397.73;130.67;;;;;;;-142.25;100.00;58004.16;5035595;28;20079;-68
2023/01/09 04:15:17;;;;;;;402.83;145.83;;;;;;;-142.25;100.00;58004.16;5041483;28;20076;-67
2023/01/09 04:17:43;;;;;;;397.30;134.10;;;;;;;-142.25;100.00;58004.16;5039051;28;20084;-68
2023/01/09 04:20:09;;;;;;;398.53;138.57;;;;;;;-142.25;100.00;58004.16;5036696;28;20037;-68
2023/01/09 04:22:35;;;;;;;396.77;132.93;;;;;;;-142.25;100.00;58004.16;5036843;28;20040;-68
2023/01/09 04:25:01;;;;;;;398.63;134.97;;;;;;;-142.25;100.00;58004.16;5032628;28;20400;-68
2023/01/09 04:27:29;;;;;;;400.83;135.83;;;;;;;-142.25;100.00;58004.16;5034069;28;20166;-67
2023/01/09 04:29:55;;;;;;;403.60;139.80;;;;;;;-142.25;100.00;58004.16;5037987;28;20424;-69
2023/01/09 04:32:21;;;;;;;400.70;135.27;;;;;;;-142.25;100.00;58004.16;5035881;28;20045;-68
2023/01/09 04:34:47;;;;;;;398.97;136.90;;;;;;;-142.25;100.00;58004.16;5035460;28;20324;-68
2023/01/09 04:37:13;;;;;;;400.00;138.73;;;;;;;-142.25;100.00;58004.16;5033805;28;20482;-68
2023/01/09 04:39:42;;;;;;;399.93;142.63;;;;;;;-142.25;100.00;58004.16;5036579;28;20290;-67
2023/01/09 04:42:08;;;;;;;402.43;142.20;;;;;;;-142.25;100.00;58004.16;5034959;28;20478;-66
2023/01/09 04:44:34;;;;;;;403.60;143.47;;;;;;;-142.25;100.00;58004.16;5035715;28;20599;-69
2023/01/09 04:47:00;;;;;;;404.73;145.57;;;;;;;-142.25;100.00;58004.16;5032635;28;20283;-67
2023/01/09 04:49:25;;;;;;;404.37;144.90;;;;;;;-142.25;100.00;58004.16;5033758;28;20043;-67
2023/01/09 04:51:52;;;;;;;402.87;147.23;;;;;;;-142.25;100.00;58004.16;5035775;28;20577;-66
2023/01/09 04:54:18;;;;;;;401.10;140.97;;;;;;;-142.25;100.00;58004.16;5035284;28;20045;-66
2023/01/09 04:56:44;;;;;;;404.43;145.90;;;;;;;-142.25;100.00;58004.16;5032132;28;20758;-67
2023/01/09 04:59:10;;;;;;;402.80;142.90;;;;;;;-142.25;100.00;58004.16;5033079;28;20446;-69
2023/01/09 05:01:36;;;;;;;403.83;147.37;;;;;;;-142.25;100.00;58004.16;5032418;28;20068;-68
2023/01/09 05:04:03;;;;;;;406.37;151.93;;;;;;;-142.25;100.00;58004.16;5031090;28;20272;-68
2023/01/09 05:06:29;;;;;;;405.00;151.07;;;;;;;-142.25;100.00;58004.16;5033660;28;20307;-68
2023/01/09 05:08:55;;;;;;;403.73;147.67;;;;;;;-142.25;100.00;58004.16;5034045;28;20829;-67
2023/01/09 05:11:22;;;;;;;403.10;149.20;;;;;;;-142.25;100.00;58004.16;5041165;28;20337;-67
2023/01/09 05:13:47;;;;;;;404.53;152.97;;;;;;;-142.25;100.00;58004.16;5034440;28;20321;-68
2023/01/09 05:16:13;;;;;;;406.73;156.63;;;;;;;-142.25;100.00;58004.16;5034256;28;20276;-67
2023/01/09 05:18:39;;;;;;;403.60;150.27;;;;;;;-142.25;100.00;58004.16;5034919;28;20049;-68
2023/01/09 05:21:05;;;;;;;407.47;155.13;;;;;;;-142.25;100.00;58004.16;5030120;28;20049;-68
2023/01/09 05:23:31;;;;;;;407.07;155.53;;;;;;;-142.25;100.00;58004.16;5031096;28;20330;-67
2023/01/09 05:25:56;;;;;;;412.47;157.97;;;;;;;-142.25;100.00;58004.16;5034061;28;20610;-68
2023/01/09 05:28:22;;;;;;;413.13;161.20;;;;;;;-142.25;100.00;58004.16;5028471;28;20156;-69
2023/01/09 05:30:48;;;;;;;407.10;160.77;;;;;;;-142.25;100.00;58004.16;5032630;28;20480;-70
2023/01/09 05:33:14;;;;;;;411.57;170.47;;;;;;;-142.25;100.00;58004.16;5031803;28;20509;-69
2023/01/09 05:35:39;;;;;;;409.67;164.37;;;;;;;-142.25;100.00;58004.16;5032761;28;20495;-69
2023/01/09 05:38:05;;;;;;;409.10;162.87;;;;;;;-142.25;100.00;58004.16;5033597;28;20684;-68
2023/01/09 05:40:31;;;;;;;410.63;170.43;;;;;;;-142.25;100.00;58004.16;5036831;28;20049;-68
2023/01/09 05:42:56;;;;;;;411.03;172.57;;;;;;;-142.25;100.00;58004.16;5034185;28;20072;-67
2023/01/09 05:45:22;;;;;;;414.27;176.57;;;;;;;-142.25;100.00;58004.16;5029062;28;20171;-68
2023/01/09 05:47:47;;;;;;;411.83;173.33;;;;;;;-142.25;100.00;58004.16;5032200;28;20056;-68
2023/01/09 05:50:14;;;;;;;411.47;174.13;;;;;;;-142.25;100.00;58004.16;5034216;28;20041;-67
2023/01/09 05:52:39;;;;;;;413.23;178.13;;;;;;;-142.25;100.00;58004.16;5034590;28;20048;-67
2023/01/09 05:55:06;;;;;;;409.90;174.10;;;;;;;-142.25;100.00;58004.16;5032843;28;20287;-67
2023/01/09 05:57:31;;;;;;;417.20;186.73;;;;;;;-142.25;100.00;58004.16;5030863;28;20403;-69
2023/01/09 05:59:57;;;;;;;419.57;191.03;;;;;;;-142.25;100.00;58004.16;5029856;28;20275;-68
2023/01/09 06:02:22;;;;;;;414.30;186.77;;;;;;;-142.25;100.00;58004.16;5033981;28;20136;-68
2023/01/09 06:04:48;;;;;;;415.73;190.43;;;;;;;-142.25;100.00;58004.16;5031888;28;20103;-67
2023/01/09 06:07:14;;;;;;;418.70;196.33;;;;;;;-142.25;100.00;58004.16;5031319;28;20041;-70
2023/01/09 06:09:40;;;;;;;416.80;189.80;;;;;;;-142.25;100.00;58004.16;5032948;28;20474;-66
2023/01/09 06:12:06;;;;;;;416.30;189.63;;;;;;;-142.25;100.00;58004.16;5012060;28;20351;-68
2023/01/09 06:14:31;;;;;;;421.23;201.30;;;;;;;-142.25;100.00;58004.16;5035016;28;20487;-73
2023/01/09 06:16:57;;;;;;;420.13;194.57;;;;;;;-142.25;100.00;58004.16;5035978;28;20139;-72
2023/01/09 06:19:23;;;;;;;417.27;190.93;;;;;;;-142.25;100.00;58004.16;5038196;28;20045;-73
2023/01/09 06:21:48;;;;;;;415.07;187.00;;;;;;;-142.25;100.00;58004.16;5045966;28;20404;-72
2023/01/09 06:24:14;;;;;;;418.17;191.87;;;;;;;-142.25;100.00;58004.16;5036464;28;20797;-73
2023/01/09 06:26:40;;;;;;;420.20;197.00;;;;;;;-142.25;100.00;58004.16;5037641;28;20352;-75
2023/01/09 06:29:07;;;;;;;417.53;194.90;;;;;;;-142.25;100.00;58004.16;5032794;28;20029;-72
2023/01/09 06:31:33;;;;;;;422.47;197.53;;;;;;;-142.25;100.00;58004.16;5032249;28;20122;-74
2023/01/09 06:33:58;;;;;;;417.57;194.73;;;;;;;-142.25;100.00;58004.16;5032308;28;20809;-72
2023/01/09 06:36:24;;;;;;;417.97;191.20;;;;;;;-142.25;100.00;58004.16;5037070;28;20075;-73
2023/01/09 06:38:49;;;;;;;418.87;195.73;;;;;;;-142.25;100.00;58004.16;5036861;28;20055;-72
2023/01/09 06:41:15;;;;;;;418.90;198.70;;;;;;;-142.25;100.00;58004.16;5032411;28;20499;-72
2023/01/09 06:43:44;;;;;;;419.63;192.37;;;;;;;-142.25;100.00;58004.16;5034812;28;20555;-74
2023/01/09 06:46:10;;;;;;;418.47;187.73;;;;;;;-142.25;100.00;58004.16;5035991;28;20390;-74
2023/01/09 06:48:35;;;;;;;419.70;193.47;;;;;;;-142.25;100.00;58004.16;5035268;28;20655;-62
2023/01/09 06:51:01;;;;;;;415.23;190.33;;;;;;;-142.25;100.00;58004.16;5034625;28;20041;-64
2023/01/09 06:53:27;;;;;;;418.27;199.33;;;;;;;-142.25;100.00;58004.16;5031560;28;20040;-64
2023/01/09 06:55:53;;;;;;;417.73;195.93;;;;;;;-142.25;100.00;58004.16;5031516;28;20049;-64
2023/01/09 06:58:19;;;;;;;417.03;192.63;;;;;;;-142.25;100.00;58004.16;5033548;28;20490;-64
2023/01/09 07:00:45;;;;;;;418.77;196.83;;;;;;;-142.25;100.00;58004.16;5032582;28;20040;-63
2023/01/09 07:03:11;;;;;;;416.90;191.73;;;;;;;-142.25;100.00;58004.16;5033514;28;20785;-65
2023/01/09 07:05:45;;;;;;;418.57;200.03;;;;;;;-142.25;100.00;58004.16;5032249;28;20036;-63
2023/01/09 07:08:11;;;;;;;295.40;140.60;;;;;;;-142.25;100.00;58004.16;5015451;28;20053;-62
2023/01/09 07:10:36;;;;;;;418.80;200.50;;;;;;;-142.25;100.00;58004.16;5032342;28;20645;-62
2023/01/09 07:13:02;;;;;;;420.97;204.23;;;;;;;-142.25;100.00;58004.16;5032650;28;20048;-63
2023/01/09 07:15:28;;;;;;;421.23;204.27;;;;;;;-142.25;100.00;58004.16;5030963;28;20106;-63
2023/01/09 07:17:53;;;;;;;421.00;211.50;;;;;;;-142.25;100.00;58004.16;5028369;28;20104;-63
2023/01/09 07:20:19;;;;;;;419.50;202.67;;;;;;;-142.25;100.00;58004.16;5030957;28;20037;-65
2023/01/09 07:22:45;;;;;;;422.03;208.17;;;;;;;-142.25;100.00;58004.16;5034814;28;20037;-62
2023/01/09 07:25:11;;;;;;;421.63;211.97;;;;;;;-142.25;100.00;58004.16;5041142;28;20041;-63
2023/01/09 07:27:37;;;;;;;418.63;201.30;;;;;;;-142.25;100.00;58004.16;5037625;28;20314;-66
2023/01/09 07:30:05;;;;;;;423.17;208.77;;;;;;;-142.25;100.00;58004.16;5033586;28;20472;-63
2023/01/09 07:32:32;;;;;;;420.20;201.23;;;;;;;-142.25;100.00;58004.16;5035998;28;20049;-64
2023/01/09 07:34:58;;;;;;;421.83;201.90;;;;;;;-142.25;100.00;58004.16;5036611;28;20382;-64
2023/01/09 07:37:24;;;;;;;423.73;203.93;;;;;;;-142.25;100.00;58004.16;5037524;28;20441;-63
2023/01/09 07:39:50;;;;;;;421.87;206.23;;;;;;;-142.25;100.00;58004.16;5036065;28;20052;-63
2023/01/09 07:42:16;;;;;;;420.40;200.40;;;;;;;-142.25;100.00;58004.16;5038288;28;20571;-63
2023/01/09 07:44:42;;;;;;;427.87;234.53;;;;;;;-142.25;100.00;58004.16;5036148;28;20045;-63
2023/01/09 07:47:07;;;;;;;422.97;210.03;;;;;;;-142.25;100.00;58004.16;5035054;28;20290;-63
2023/01/09 07:49:33;;;;;;;420.73;203.43;;;;;;;-142.25;100.00;58004.16;5041115;28;20648;-64
2023/01/09 07:51:59;;;;;;;419.50;202.33;;;;;;;-142.25;100.00;58004.16;5045418;28;20025;-63
2023/01/09 07:54:24;;;;;;;423.80;215.87;;;;;;;-142.25;100.00;58004.16;5035117;28;20048;-63
2023/01/09 07:56:50;;;;;;;422.17;213.50;;;;;;;-142.25;100.00;58004.16;5033527;28;20049;-64
2023/01/09 07:59:16;;;;;;;422.80;206.80;;;;;;;-142.25;100.00;58004.16;5034277;28;20049;-68
2023/01/09 08:01:42;;;;;;;423.90;208.73;;;;;;;-142.25;100.00;58004.16;5036359;28;20495;-68
2023/01/09 08:04:07;;;;;;;425.80;211.93;;;;;;;-142.25;100.00;58004.16;5035121;28;20037;-65
2023/01/09 08:06:33;;;;;;;425.07;215.57;;;;;;;-142.25;100.00;58004.16;5034989;28;20463;-65
2023/01/09 08:08:59;;;;;;;428.07;217.43;;;;;;;-142.25;100.00;58004.16;5034307;28;20133;-64
2023/01/09 08:11:24;;;;;;;421.60;205.30;;;;;;;-142.25;100.00;58004.16;5043209;28;20415;-65
2023/01/09 08:13:50;;;;;;;421.63;200.90;;;;;;;-142.25;100.00;58004.16;5035605;28;20045;-65
2023/01/09 08:16:16;;;;;;;420.73;196.80;;;;;;;-142.25;100.00;58004.16;5034854;28;20233;-66
2023/01/09 08:18:42;;;;;;;418.80;193.50;;;;;;;-142.25;100.00;58004.16;5033283;28;20788;-66
2023/01/09 08:21:10;;;;;;;420.77;200.13;;;;;;;-142.25;100.00;58004.16;5033160;28;20065;-66
2023/01/09 08:23:36;;;;;;;418.57;192.80;;;;;;;-142.25;100.00;58004.16;5033094;28;20291;-67
2023/01/09 08:26:03;;;;;;;417.03;189.63;;;;;;;-142.25;100.00;58004.16;5033769;28;20770;-66
2023/01/09 08:28:28;;;;;;;420.90;197.07;;;;;;;-142.25;100.00;58004.16;5034377;28;20904;-66
2023/01/09 08:30:54;;;;;;;424.07;199.07;;;;;;;-142.25;100.00;58004.16;5032030;28;20843;-66
2023/01/09 08:33:20;;;;;;;424.00;204.33;;;;;;;-142.25;100.00;58004.16;5029168;28;20075;-67
2023/01/09 08:35:45;;;;;;;418.80;197.23;;;;;;;-142.25;100.00;58004.16;5031008;28;20721;-67
2023/01/09 08:38:11;;;;;;;425.70;202.47;;;;;;;-142.25;100.00;58004.16;5031136;28;20048;-68
2023/01/09 08:40:37;;;;;;;419.67;198.90;;;;;;;-142.25;100.00;58004.16;5036252;28;20557;-67
2023/01/09 08:48:31;;;;;;;424.07;200.70;;;;;;;-142.25;100.00;58004.16;5033950;28;20300;-67
2023/01/09 08:50:57;;;;;;;419.40;191.70;;;;;;;-142.25;100.00;58004.16;5034494;28;20788;-67
2023/01/09 08:53:22;;;;;;;426.30;203.47;;;;;;;-142.25;100.00;58004.16;5032910;28;20578;-68
2023/01/09 08:55:48;;;;;;;423.90;203.67;;;;;;;-142.25;100.00;58004.16;5031859;28;20384;-68
2023/01/09 08:58:14;;;;;;;421.30;196.73;;;;;;;-142.25;100.00;58004.16;5030441;28;20041;-68
2023/01/09 09:00:40;;;;;;;420.87;202.70;;;;;;;-142.25;100.00;58004.16;5028175;28;20045;-68
2023/01/09 09:03:05;;;;;;;421.73;205.30;;;;;;;-142.25;100.00;58004.16;5030033;28;20436;-67
2023/01/09 09:05:31;;;;;;;423.77;203.20;;;;;;;-142.25;100.00;58004.16;5032362;28;20567;-67
2023/01/09 09:07:57;;;;;;;424.27;201.47;;;;;;;-142.25;100.00;58004.16;5030629;28;20575;-68
2023/01/09 09:10:26;;;;;;;425.03;202.27;;;;;;;-142.25;100.00;58004.16;5032362;28;20403;-67
2023/01/09 09:12:54;;;;;;;428.07;209.87;;;;;;;-142.25;100.00;58004.16;5032643;28;20770;-69
2023/01/09 09:15:24;;;;;;;426.03;207.07;;;;;;;-142.25;100.00;58004.16;5030773;28;20728;-67
2023/01/09 09:17:55;;;;;;;425.87;208.37;;;;;;;-142.25;100.00;58004.16;5031897;28;20328;-67
2023/01/09 09:20:22;;;;;;;424.50;202.87;;;;;;;-142.25;100.00;58004.16;5033135;28;20331;-67
2023/01/09 09:22:48;;;;;;;424.93;201.37;;;;;;;-142.25;100.00;58004.16;5031683;28;20276;-66
2023/01/09 09:25:15;;;;;;;423.77;199.17;;;;;;;-142.25;100.00;58004.16;5033919;28;20271;-66
2023/01/09 09:27:41;;;;;;;421.47;197.70;;;;;;;-142.25;100.00;58004.16;5032318;28;20091;-68
2023/01/09 09:30:08;;;;;;;422.67;200.20;;;;;;;-142.25;100.00;58004.16;5033323;28;20286;-68
2023/01/09 09:32:34;;;;;;;422.60;199.83;;;;;;;-142.25;100.00;58004.16;5032755;28;20079;-67
2023/01/09 09:34:59;;;;;;;421.03;192.80;;;;;;;-142.25;100.00;58004.16;5033268;28;20745;-67
2023/01/09 09:37:25;;;;;;;418.23;190.80;;;;;;;-142.25;100.00;58004.16;5031684;28;20056;-67
2023/01/09 09:39:51;;;;;;;419.43;191.73;;;;;;;-142.25;100.00;58004.16;5034187;28;20088;-68
2023/01/09 09:45:33;;;;;;;420.03;199.73;;;;;;;-142.25;100.00;58004.16;5031700;28;20531;-72
2023/01/09 09:48:01;;;;;;;415.43;184.77;;;;;;;-142.25;100.00;58004.16;5033880;28;20654;-73
2023/01/09 09:50:57;;;;;;;417.50;189.87;;;;;;;-142.25;100.00;58004.16;5032594;28;20606;-73
2023/01/09 09:53:31;;;;;;;415.55;190.82;;;;;;;-142.25;100.00;58004.16;5028408;28;20291;-74
2023/01/09 09:55:57;;;;;;;415.13;184.57;;;;;;;-142.25;100.00;58004.16;5035121;28;20464;-73
2023/01/09 09:58:27;;;;;;;415.80;186.83;;;;;;;-142.25;100.00;58004.16;5034189;28;20695;-74
2023/01/09 10:00:53;;;;;;;414.63;187.83;;;;;;;-142.25;100.00;58004.16;5033916;28;20335;-74
2023/01/09 10:03:31;;;;;;;415.13;189.60;;;;;;;-142.25;100.00;58004.16;5030986;28;21111;-72
2023/01/09 10:06:01;;;;;;;414.13;183.40;;;;;;;-142.25;100.00;58004.16;5035422;28;20284;-73
2023/01/09 10:08:41;;;;;;;413.30;186.87;;;;;;;-142.25;100.00;58004.16;5034959;28;20772;-74
2023/01/09 10:11:24;;;;;;;414.77;185.20;;;;;;;-142.25;100.00;58004.16;5036439;28;20313;-75
2023/01/09 10:14:05;;;;;;;416.77;196.67;;;;;;;-142.25;100.00;58004.16;5030826;28;20348;-72
2023/01/09 10:16:46;;;;;;;414.77;186.00;;;;;;;-142.25;100.00;58004.16;5031057;28;20738;-72
2023/01/09 10:19:27;;;;;;;413.33;182.17;;;;;;;-142.25;100.00;58004.16;5035226;28;20276;-72
2023/01/09 10:21:53;;;;;;;413.47;178.70;;;;;;;-142.25;100.00;58004.16;5033688;28;20740;-74
2023/01/09 10:25:03;;;;;;;413.67;178.97;;;;;;;-142.25;100.00;58004.16;5039618;28;20276;-71
2023/01/09 10:27:47;;;;;;;413.23;166.20;;;;;;;-142.25;100.00;58004.16;4976140;28;20054;-74
2023/01/09 10:30:44;;;;;;;409.20;164.57;;;;;;;-142.25;100.00;58004.16;4977994;28;20293;-72
2023/01/09 10:33:28;;;;;;;407.80;158.17;;;;;;;-142.25;100.00;58004.16;4980308;28;20286;-72
2023/01/09 10:36:12;;;;;;;407.30;163.13;;;;;;;-142.25;100.00;58004.16;4979977;28;20317;-73
2023/01/09 10:38:44;;;;;;;297.38;117.15;;;;;;;-142.25;100.00;58004.16;4981812;28;20313;-72
2023/01/09 10:41:19;;;;;;;407.27;161.93;;;;;;;-142.25;100.00;58004.16;4982653;28;20050;-73
2023/01/09 10:44:16;;;;;;;413.02;172.57;;;;;;;-142.25;100.00;58004.16;4979098;28;20323;-71
2023/01/09 10:46:47;;;;;;;409.00;166.50;;;;;;;-142.25;100.00;58004.16;4978830;28;20054;-72
2023/01/09 10:49:16;;;;;;;408.23;168.60;;;;;;;-142.25;100.00;58004.16;4979628;28;21273;-73
2023/01/09 10:51:46;;;;;;;408.20;164.20;;;;;;;-142.25;100.00;58004.16;4980495;28;20473;-72
2023/01/09 10:54:17;;;;;;;409.47;169.30;;;;;;;-142.25;100.00;58004.16;4963760;28;20519;-73
2023/01/09 10:57:01;;;;;;;409.37;166.43;;;;;;;-142.25;100.00;58004.16;4980628;28;20278;-72
2023/01/09 10:59:29;;;;;;;406.97;164.83;;;;;;;-142.25;100.00;58004.16;4963020;28;20305;-72